sensor_id;sensor_type;location;lat;lon;timestamp;temperature;humidity
40848;DHT22;26570;50.962;5.340;2023-10-08T00:00:34;15.40;99.90
40848;DHT22;26570;50.962;5.340;2023-10-08T00:03:55;15.80;99.90
40848;DHT22;26570;50.962;5.340;2023-10-08T00:07:07;15.70;99.90
40848;DHT22;26570;50.962;5.340;2023-10-08T00:10:29;15.70;99.90
40848;DHT22;26570;50.962;5.340;2023-10-08T00:14:00;15.70;99.90
40848;DHT22;26570;50.962;5.340;2023-10-08T00:17:34;15.70;99.90
40848;DHT22;26570;50.962;5.340;2023-10-08T00:21:21;15.80;99.90
40848;DHT22;26570;50.962;5.340;2023-10-08T00:24:30;15.50;99.90
40848;DHT22;26570;50.962;5.340;2023-10-08T00:27:50;15.60;99.90
40848;DHT22;26570;50.962;5.340;2023-10-08T00:31:11;15.30;99.90
40848;DHT22;26570;50.962;5.340;2023-10-08T00:34:14;15.50;99.90
40848;DHT22;26570;50.962;5.340;2023-10-08T00:37:47;15.10;99.90
40848;DHT22;26570;50.962;5.340;2023-10-08T00:41:12;15.50;99.90
40848;DHT22;26570;50.962;5.340;2023-10-08T00:44:56;15.60;99.90
40848;DHT22;26570;50.962;5.340;2023-10-08T00:48:00;15.40;99.90
40848;DHT22;26570;50.962;5.340;2023-10-08T00:50:57;15.30;99.90
40848;DHT22;26570;50.962;5.340;2023-10-08T00:54:43;15.20;99.90
40848;DHT22;26570;50.962;5.340;2023-10-08T00:58:34;15.50;99.90
40848;DHT22;26570;50.962;5.340;2023-10-08T01:01:45;15.10;99.90
40848;DHT22;26570;50.962;5.340;2023-10-08T01:05:19;15.30;99.90
40848;DHT22;26570;50.962;5.340;2023-10-08T01:13:02;15.00;99.90
40848;DHT22;26570;50.962;5.340;2023-10-08T01:16:32;15.10;99.90
40848;DHT22;26570;50.962;5.340;2023-10-08T01:19:46;15.00;99.90
40848;DHT22;26570;50.962;5.340;2023-10-08T01:23:39;14.90;99.90
40848;DHT22;26570;50.962;5.340;2023-10-08T01:27:16;14.90;99.90
40848;DHT22;26570;50.962;5.340;2023-10-08T01:30:31;14.60;99.90
40848;DHT22;26570;50.962;5.340;2023-10-08T01:37:21;14.90;99.90
40848;DHT22;26570;50.962;5.340;2023-10-08T01:40:26;14.70;99.90
40848;DHT22;26570;50.962;5.340;2023-10-08T01:48:01;14.50;99.90
40848;DHT22;26570;50.962;5.340;2023-10-08T01:51:10;14.30;99.90
40848;DHT22;26570;50.962;5.340;2023-10-08T01:54:19;14.30;99.90
40848;DHT22;26570;50.962;5.340;2023-10-08T01:57:49;13.90;99.90
40848;DHT22;26570;50.962;5.340;2023-10-08T02:01:12;14.20;99.90
40848;DHT22;26570;50.962;5.340;2023-10-08T02:04:34;14.10;99.90
40848;DHT22;26570;50.962;5.340;2023-10-08T02:08:24;14.20;99.90
40848;DHT22;26570;50.962;5.340;2023-10-08T02:11:51;14.20;99.90
40848;DHT22;26570;50.962;5.340;2023-10-08T02:19:13;14.30;99.90
40848;DHT22;26570;50.962;5.340;2023-10-08T02:22:18;14.20;99.90
40848;DHT22;26570;50.962;5.340;2023-10-08T02:25:32;14.30;99.90
40848;DHT22;26570;50.962;5.340;2023-10-08T02:28:31;14.40;99.90
40848;DHT22;26570;50.962;5.340;2023-10-08T02:31:41;14.50;99.90
40848;DHT22;26570;50.962;5.340;2023-10-08T02:34:48;14.50;99.90
40848;DHT22;26570;50.962;5.340;2023-10-08T02:38:08;15.10;99.90
40848;DHT22;26570;50.962;5.340;2023-10-08T02:44:41;14.70;99.90
40848;DHT22;26570;50.962;5.340;2023-10-08T02:47:58;14.60;99.90
40848;DHT22;26570;50.962;5.340;2023-10-08T02:51:42;14.80;99.90
40848;DHT22;26570;50.962;5.340;2023-10-08T02:54:46;14.70;99.90
40848;DHT22;26570;50.962;5.340;2023-10-08T02:58:20;14.80;99.90
40848;DHT22;26570;50.962;5.340;2023-10-08T03:01:41;14.70;99.90
40848;DHT22;26570;50.962;5.340;2023-10-08T03:04:42;14.70;99.90
40848;DHT22;26570;50.962;5.340;2023-10-08T03:07:43;14.70;99.90
40848;DHT22;26570;50.962;5.340;2023-10-08T03:11:05;14.70;99.90
40848;DHT22;26570;50.962;5.340;2023-10-08T03:14:47;14.90;99.90
40848;DHT22;26570;50.962;5.340;2023-10-08T03:18:44;14.70;99.90
40848;DHT22;26570;50.962;5.340;2023-10-08T03:26:06;14.80;99.90
40848;DHT22;26570;50.962;5.340;2023-10-08T03:29:16;14.60;99.90
40848;DHT22;26570;50.962;5.340;2023-10-08T03:36:42;15.00;99.90
40848;DHT22;26570;50.962;5.340;2023-10-08T03:40:02;14.60;99.90
40848;DHT22;26570;50.962;5.340;2023-10-08T03:43:31;14.70;99.90
40848;DHT22;26570;50.962;5.340;2023-10-08T03:50:15;14.60;99.90
40848;DHT22;26570;50.962;5.340;2023-10-08T03:53:53;14.50;99.90
40848;DHT22;26570;50.962;5.340;2023-10-08T04:01:40;14.60;99.90
40848;DHT22;26570;50.962;5.340;2023-10-08T04:08:10;14.50;99.90
40848;DHT22;26570;50.962;5.340;2023-10-08T04:15:41;14.60;99.90
40848;DHT22;26570;50.962;5.340;2023-10-08T04:19:02;14.50;99.90
40848;DHT22;26570;50.962;5.340;2023-10-08T04:22:42;14.40;99.90
40848;DHT22;26570;50.962;5.340;2023-10-08T04:26:01;14.50;99.90
40848;DHT22;26570;50.962;5.340;2023-10-08T04:29:18;14.50;99.90
40848;DHT22;26570;50.962;5.340;2023-10-08T04:32:18;14.40;99.90
40848;DHT22;26570;50.962;5.340;2023-10-08T04:35:54;14.20;99.90
40848;DHT22;26570;50.962;5.340;2023-10-08T04:39:21;14.10;99.90
40848;DHT22;26570;50.962;5.340;2023-10-08T04:43:05;14.00;99.90
40848;DHT22;26570;50.962;5.340;2023-10-08T04:46:06;14.00;99.90
40848;DHT22;26570;50.962;5.340;2023-10-08T04:52:54;13.90;99.90
40848;DHT22;26570;50.962;5.340;2023-10-08T04:56:34;13.60;99.90
40848;DHT22;26570;50.962;5.340;2023-10-08T05:00:19;13.70;99.90
40848;DHT22;26570;50.962;5.340;2023-10-08T05:03:35;13.70;99.90
40848;DHT22;26570;50.962;5.340;2023-10-08T05:06:36;13.80;99.90
40848;DHT22;26570;50.962;5.340;2023-10-08T05:10:05;13.90;99.90
40848;DHT22;26570;50.962;5.340;2023-10-08T05:13:21;13.70;99.90
40848;DHT22;26570;50.962;5.340;2023-10-08T05:16:48;13.60;99.90
40848;DHT22;26570;50.962;5.340;2023-10-08T05:20:21;13.50;99.90
40848;DHT22;26570;50.962;5.340;2023-10-08T05:23:49;13.30;99.90
40848;DHT22;26570;50.962;5.340;2023-10-08T05:27:36;13.30;99.90
40848;DHT22;26570;50.962;5.340;2023-10-08T05:38:26;13.40;99.90
40848;DHT22;26570;50.962;5.340;2023-10-08T05:42:07;13.10;99.90
40848;DHT22;26570;50.962;5.340;2023-10-08T05:50:14;13.20;99.90
40848;DHT22;26570;50.962;5.340;2023-10-08T05:58:05;13.10;99.90
40848;DHT22;26570;50.962;5.340;2023-10-08T06:01:59;13.10;99.90
40848;DHT22;26570;50.962;5.340;2023-10-08T06:05:26;12.90;99.90
40848;DHT22;26570;50.962;5.340;2023-10-08T06:09:27;13.00;99.90
40848;DHT22;26570;50.962;5.340;2023-10-08T06:13:20;13.00;99.90
40848;DHT22;26570;50.962;5.340;2023-10-08T06:17:09;13.20;99.90
40848;DHT22;26570;50.962;5.340;2023-10-08T06:24:56;13.40;99.90
40848;DHT22;26570;50.962;5.340;2023-10-08T06:41:20;13.40;99.90
40848;DHT22;26570;50.962;5.340;2023-10-08T06:45:17;13.60;99.90
40848;DHT22;26570;50.962;5.340;2023-10-08T06:57:02;14.20;99.90
40848;DHT22;26570;50.962;5.340;2023-10-08T07:00:00;14.60;99.90
40848;DHT22;26570;50.962;5.340;2023-10-08T07:06:28;15.10;99.90
40848;DHT22;26570;50.962;5.340;2023-10-08T07:10:13;15.30;99.90
40848;DHT22;26570;50.962;5.340;2023-10-08T07:13:37;15.50;99.90
40848;DHT22;26570;50.962;5.340;2023-10-08T07:17:05;15.70;99.90
40848;DHT22;26570;50.962;5.340;2023-10-08T07:28:30;16.60;99.90
40848;DHT22;26570;50.962;5.340;2023-10-08T07:31:36;16.80;99.90
40848;DHT22;26570;50.962;5.340;2023-10-08T07:35:10;16.90;99.90
40848;DHT22;26570;50.962;5.340;2023-10-08T07:39:07;17.30;99.90
40848;DHT22;26570;50.962;5.340;2023-10-08T07:42:09;17.10;99.90
40848;DHT22;26570;50.962;5.340;2023-10-08T07:46:04;17.20;99.90
40848;DHT22;26570;50.962;5.340;2023-10-08T07:53:00;17.80;99.90
40848;DHT22;26570;50.962;5.340;2023-10-08T08:00:36;18.40;99.90
40848;DHT22;26570;50.962;5.340;2023-10-08T08:04:33;18.20;99.90
40848;DHT22;26570;50.962;5.340;2023-10-08T08:07:50;17.70;99.90
40848;DHT22;26570;50.962;5.340;2023-10-08T08:10:52;18.00;99.90
40848;DHT22;26570;50.962;5.340;2023-10-08T08:15:12;18.40;99.90
40848;DHT22;26570;50.962;5.340;2023-10-08T08:18:40;18.40;99.90
40848;DHT22;26570;50.962;5.340;2023-10-08T08:22:37;18.40;99.90
40848;DHT22;26570;50.962;5.340;2023-10-08T08:26:23;18.40;99.90
40848;DHT22;26570;50.962;5.340;2023-10-08T08:33:41;18.80;99.90
40848;DHT22;26570;50.962;5.340;2023-10-08T08:37:21;18.90;99.90
40848;DHT22;26570;50.962;5.340;2023-10-08T08:41:04;18.90;99.90
40848;DHT22;26570;50.962;5.340;2023-10-08T08:44:15;19.00;99.90
40848;DHT22;26570;50.962;5.340;2023-10-08T08:47:42;19.10;99.90
40848;DHT22;26570;50.962;5.340;2023-10-08T08:51:06;19.40;99.90
40848;DHT22;26570;50.962;5.340;2023-10-08T08:54:11;19.40;99.90
40848;DHT22;26570;50.962;5.340;2023-10-08T08:57:50;19.50;99.90
40848;DHT22;26570;50.962;5.340;2023-10-08T09:01:00;19.70;99.90
40848;DHT22;26570;50.962;5.340;2023-10-08T09:04:01;19.60;99.90
40848;DHT22;26570;50.962;5.340;2023-10-08T09:06:54;20.30;99.90
40848;DHT22;26570;50.962;5.340;2023-10-08T09:09:59;21.10;99.90
40848;DHT22;26570;50.962;5.340;2023-10-08T09:13:35;21.50;99.90
40848;DHT22;26570;50.962;5.340;2023-10-08T09:16:50;22.70;99.90
40848;DHT22;26570;50.962;5.340;2023-10-08T09:20:37;23.40;99.90
40848;DHT22;26570;50.962;5.340;2023-10-08T09:24:01;23.70;99.90
40848;DHT22;26570;50.962;5.340;2023-10-08T09:27:07;23.80;99.90
40848;DHT22;26570;50.962;5.340;2023-10-08T09:30:16;24.10;99.90
40848;DHT22;26570;50.962;5.340;2023-10-08T09:33:10;24.50;99.90
40848;DHT22;26570;50.962;5.340;2023-10-08T09:36:14;24.70;99.90
40848;DHT22;26570;50.962;5.340;2023-10-08T09:39:05;24.70;99.90
40848;DHT22;26570;50.962;5.340;2023-10-08T09:42:10;24.60;99.90
40848;DHT22;26570;50.962;5.340;2023-10-08T09:45:11;24.60;99.90
40848;DHT22;26570;50.962;5.340;2023-10-08T09:48:15;24.40;99.90
40848;DHT22;26570;50.962;5.340;2023-10-08T09:51:11;24.40;99.90
40848;DHT22;26570;50.962;5.340;2023-10-08T09:54:37;24.50;99.90
40848;DHT22;26570;50.962;5.340;2023-10-08T09:57:45;24.50;99.90
40848;DHT22;26570;50.962;5.340;2023-10-08T10:01:01;24.70;99.90
40848;DHT22;26570;50.962;5.340;2023-10-08T10:04:09;24.40;99.90
40848;DHT22;26570;50.962;5.340;2023-10-08T10:07:14;24.40;99.90
40848;DHT22;26570;50.962;5.340;2023-10-08T10:10:40;24.40;99.90
40848;DHT22;26570;50.962;5.340;2023-10-08T10:14:00;24.60;99.90
40848;DHT22;26570;50.962;5.340;2023-10-08T10:17:22;24.30;99.90
40848;DHT22;26570;50.962;5.340;2023-10-08T10:20:11;24.40;99.90
40848;DHT22;26570;50.962;5.340;2023-10-08T10:23:36;24.40;99.90
40848;DHT22;26570;50.962;5.340;2023-10-08T10:26:27;24.50;99.90
40848;DHT22;26570;50.962;5.340;2023-10-08T10:29:24;24.00;99.90
40848;DHT22;26570;50.962;5.340;2023-10-08T10:32:20;24.00;99.90
40848;DHT22;26570;50.962;5.340;2023-10-08T10:35:09;23.70;99.90
40848;DHT22;26570;50.962;5.340;2023-10-08T10:38:49;23.70;99.90
40848;DHT22;26570;50.962;5.340;2023-10-08T10:41:48;23.90;99.90
40848;DHT22;26570;50.962;5.340;2023-10-08T10:44:55;23.90;99.90
40848;DHT22;26570;50.962;5.340;2023-10-08T10:47:53;23.80;99.90
40848;DHT22;26570;50.962;5.340;2023-10-08T10:50:58;23.90;99.90
40848;DHT22;26570;50.962;5.340;2023-10-08T10:54:15;23.80;99.90
40848;DHT22;26570;50.962;5.340;2023-10-08T10:57:35;24.00;99.90
40848;DHT22;26570;50.962;5.340;2023-10-08T11:00:43;24.30;99.90
40848;DHT22;26570;50.962;5.340;2023-10-08T11:03:53;24.10;99.90
40848;DHT22;26570;50.962;5.340;2023-10-08T11:06:52;24.20;99.90
40848;DHT22;26570;50.962;5.340;2023-10-08T11:13:02;24.10;99.90
40848;DHT22;26570;50.962;5.340;2023-10-08T11:15:58;24.40;99.90
40848;DHT22;26570;50.962;5.340;2023-10-08T11:18:59;24.60;99.90
40848;DHT22;26570;50.962;5.340;2023-10-08T11:22:10;24.50;99.90
40848;DHT22;26570;50.962;5.340;2023-10-08T11:25:23;24.60;99.90
40848;DHT22;26570;50.962;5.340;2023-10-08T11:28:23;24.70;99.90
40848;DHT22;26570;50.962;5.340;2023-10-08T11:31:42;24.60;99.90
40848;DHT22;26570;50.962;5.340;2023-10-08T11:34:39;24.60;99.90
40848;DHT22;26570;50.962;5.340;2023-10-08T11:38:04;24.60;99.90
40848;DHT22;26570;50.962;5.340;2023-10-08T11:41:21;24.70;99.90
40848;DHT22;26570;50.962;5.340;2023-10-08T11:44:17;25.00;99.90
40848;DHT22;26570;50.962;5.340;2023-10-08T11:47:16;24.80;99.90
40848;DHT22;26570;50.962;5.340;2023-10-08T11:50:08;24.90;99.90
40848;DHT22;26570;50.962;5.340;2023-10-08T11:53:09;25.20;99.90
40848;DHT22;26570;50.962;5.340;2023-10-08T11:56:07;25.20;99.90
40848;DHT22;26570;50.962;5.340;2023-10-08T11:59:19;25.40;99.90
40848;DHT22;26570;50.962;5.340;2023-10-08T12:02:29;25.40;99.90
40848;DHT22;26570;50.962;5.340;2023-10-08T12:05:28;25.70;99.90
40848;DHT22;26570;50.962;5.340;2023-10-08T12:08:38;25.70;99.90
40848;DHT22;26570;50.962;5.340;2023-10-08T12:11:59;25.80;99.90
40848;DHT22;26570;50.962;5.340;2023-10-08T12:14:59;26.00;99.90
40848;DHT22;26570;50.962;5.340;2023-10-08T12:18:42;26.10;99.90
40848;DHT22;26570;50.962;5.340;2023-10-08T12:21:33;26.10;99.90
40848;DHT22;26570;50.962;5.340;2023-10-08T12:25:01;26.20;99.90
40848;DHT22;26570;50.962;5.340;2023-10-08T12:28:17;26.30;99.90
40848;DHT22;26570;50.962;5.340;2023-10-08T12:31:27;26.50;99.90
40848;DHT22;26570;50.962;5.340;2023-10-08T12:34:53;26.40;99.90
40848;DHT22;26570;50.962;5.340;2023-10-08T12:38:04;26.30;99.90
40848;DHT22;26570;50.962;5.340;2023-10-08T12:40:57;26.50;99.90
40848;DHT22;26570;50.962;5.340;2023-10-08T12:44:37;26.80;99.90
40848;DHT22;26570;50.962;5.340;2023-10-08T12:47:59;26.70;99.90
40848;DHT22;26570;50.962;5.340;2023-10-08T12:50:55;26.60;99.90
40848;DHT22;26570;50.962;5.340;2023-10-08T12:53:52;26.60;99.90
40848;DHT22;26570;50.962;5.340;2023-10-08T12:56:58;26.80;99.90
40848;DHT22;26570;50.962;5.340;2023-10-08T12:59:59;26.70;99.90
40848;DHT22;26570;50.962;5.340;2023-10-08T13:02:59;26.70;99.90
40848;DHT22;26570;50.962;5.340;2023-10-08T13:05:52;26.70;99.90
40848;DHT22;26570;50.962;5.340;2023-10-08T13:09:30;26.90;99.90
40848;DHT22;26570;50.962;5.340;2023-10-08T13:12:24;26.80;99.90
40848;DHT22;26570;50.962;5.340;2023-10-08T13:15:16;26.60;99.90
40848;DHT22;26570;50.962;5.340;2023-10-08T13:18:11;26.50;99.90
40848;DHT22;26570;50.962;5.340;2023-10-08T13:21:00;26.70;99.90
40848;DHT22;26570;50.962;5.340;2023-10-08T13:23:54;26.90;99.90
40848;DHT22;26570;50.962;5.340;2023-10-08T13:26:46;27.10;99.90
40848;DHT22;26570;50.962;5.340;2023-10-08T13:29:36;27.20;99.90
40848;DHT22;26570;50.962;5.340;2023-10-08T13:32:26;27.40;99.90
40848;DHT22;26570;50.962;5.340;2023-10-08T13:35:17;27.40;99.90
40848;DHT22;26570;50.962;5.340;2023-10-08T13:38:14;27.30;99.90
40848;DHT22;26570;50.962;5.340;2023-10-08T13:41:07;27.10;99.90
40848;DHT22;26570;50.962;5.340;2023-10-08T13:44:10;27.20;99.90
40848;DHT22;26570;50.962;5.340;2023-10-08T13:47:27;27.20;99.90
40848;DHT22;26570;50.962;5.340;2023-10-08T13:50:21;27.30;99.90
40848;DHT22;26570;50.962;5.340;2023-10-08T13:53:24;27.30;99.90
40848;DHT22;26570;50.962;5.340;2023-10-08T13:56:40;27.10;99.90
40848;DHT22;26570;50.962;5.340;2023-10-08T13:59:35;27.10;99.90
40848;DHT22;26570;50.962;5.340;2023-10-08T14:02:26;27.10;99.90
40848;DHT22;26570;50.962;5.340;2023-10-08T14:05:19;27.10;99.90
40848;DHT22;26570;50.962;5.340;2023-10-08T14:08:10;27.30;99.90
40848;DHT22;26570;50.962;5.340;2023-10-08T14:11:07;27.20;99.90
40848;DHT22;26570;50.962;5.340;2023-10-08T14:14:11;27.10;99.90
40848;DHT22;26570;50.962;5.340;2023-10-08T14:17:03;26.90;99.90
40848;DHT22;26570;50.962;5.340;2023-10-08T14:19:55;27.10;99.90
40848;DHT22;26570;50.962;5.340;2023-10-08T14:22:56;27.40;99.90
40848;DHT22;26570;50.962;5.340;2023-10-08T14:25:49;27.50;99.90
40848;DHT22;26570;50.962;5.340;2023-10-08T14:28:38;27.30;99.90
40848;DHT22;26570;50.962;5.340;2023-10-08T14:31:39;27.50;99.90
40848;DHT22;26570;50.962;5.340;2023-10-08T14:34:36;27.40;99.90
40848;DHT22;26570;50.962;5.340;2023-10-08T14:37:56;27.10;99.90
40848;DHT22;26570;50.962;5.340;2023-10-08T14:41:02;27.00;99.90
40848;DHT22;26570;50.962;5.340;2023-10-08T14:44:07;26.90;99.90
40848;DHT22;26570;50.962;5.340;2023-10-08T14:46:57;27.00;99.90
40848;DHT22;26570;50.962;5.340;2023-10-08T14:49:48;27.10;99.90
40848;DHT22;26570;50.962;5.340;2023-10-08T14:52:35;27.00;99.90
40848;DHT22;26570;50.962;5.340;2023-10-08T14:55:24;26.90;99.90
40848;DHT22;26570;50.962;5.340;2023-10-08T14:58:14;26.60;99.90
40848;DHT22;26570;50.962;5.340;2023-10-08T15:01:23;26.70;99.90
40848;DHT22;26570;50.962;5.340;2023-10-08T15:04:13;26.80;99.90
40848;DHT22;26570;50.962;5.340;2023-10-08T15:07:02;26.60;99.90
40848;DHT22;26570;50.962;5.340;2023-10-08T15:09:53;26.60;99.90
40848;DHT22;26570;50.962;5.340;2023-10-08T15:12:46;26.60;99.90
40848;DHT22;26570;50.962;5.340;2023-10-08T15:15:36;26.40;99.90
40848;DHT22;26570;50.962;5.340;2023-10-08T15:18:26;26.40;99.90
40848;DHT22;26570;50.962;5.340;2023-10-08T15:21:21;26.10;99.90
40848;DHT22;26570;50.962;5.340;2023-10-08T15:24:19;26.00;99.90
40848;DHT22;26570;50.962;5.340;2023-10-08T15:27:10;26.00;99.90
40848;DHT22;26570;50.962;5.340;2023-10-08T15:29:58;25.90;99.90
40848;DHT22;26570;50.962;5.340;2023-10-08T15:32:52;25.90;99.90
40848;DHT22;26570;50.962;5.340;2023-10-08T15:35:43;25.90;99.90
40848;DHT22;26570;50.962;5.340;2023-10-08T15:38:34;26.00;99.90
40848;DHT22;26570;50.962;5.340;2023-10-08T15:41:27;25.80;99.90
40848;DHT22;26570;50.962;5.340;2023-10-08T15:44:31;25.70;99.90
40848;DHT22;26570;50.962;5.340;2023-10-08T15:47:21;25.70;99.90
40848;DHT22;26570;50.962;5.340;2023-10-08T15:50:11;25.60;99.90
40848;DHT22;26570;50.962;5.340;2023-10-08T15:53:00;25.40;99.90
40848;DHT22;26570;50.962;5.340;2023-10-08T15:55:47;25.30;99.90
40848;DHT22;26570;50.962;5.340;2023-10-08T15:58:36;25.10;99.90
40848;DHT22;26570;50.962;5.340;2023-10-08T16:01:29;25.20;99.90
40848;DHT22;26570;50.962;5.340;2023-10-08T16:04:19;25.10;99.90
40848;DHT22;26570;50.962;5.340;2023-10-08T16:07:12;25.10;99.90
40848;DHT22;26570;50.962;5.340;2023-10-08T16:10:02;24.90;99.90
40848;DHT22;26570;50.962;5.340;2023-10-08T16:12:53;24.90;99.90
40848;DHT22;26570;50.962;5.340;2023-10-08T16:15:45;24.90;99.90
40848;DHT22;26570;50.962;5.340;2023-10-08T16:18:36;24.80;99.90
40848;DHT22;26570;50.962;5.340;2023-10-08T16:21:29;24.90;99.90
40848;DHT22;26570;50.962;5.340;2023-10-08T16:24:19;24.60;99.90
40848;DHT22;26570;50.962;5.340;2023-10-08T16:27:09;24.60;99.90
40848;DHT22;26570;50.962;5.340;2023-10-08T16:29:58;24.30;99.90
40848;DHT22;26570;50.962;5.340;2023-10-08T16:32:52;24.10;99.90
40848;DHT22;26570;50.962;5.340;2023-10-08T16:35:40;24.00;99.90
40848;DHT22;26570;50.962;5.340;2023-10-08T16:38:28;23.90;99.90
40848;DHT22;26570;50.962;5.340;2023-10-08T16:41:17;23.70;99.90
40848;DHT22;26570;50.962;5.340;2023-10-08T16:44:28;23.70;99.90
40848;DHT22;26570;50.962;5.340;2023-10-08T16:47:17;23.40;99.90
40848;DHT22;26570;50.962;5.340;2023-10-08T16:50:15;23.20;99.90
40848;DHT22;26570;50.962;5.340;2023-10-08T16:53:28;23.00;99.90
40848;DHT22;26570;50.962;5.340;2023-10-08T16:56:18;22.80;99.90
40848;DHT22;26570;50.962;5.340;2023-10-08T16:59:29;22.40;99.90
40848;DHT22;26570;50.962;5.340;2023-10-08T17:02:41;22.30;99.90
40848;DHT22;26570;50.962;5.340;2023-10-08T17:05:34;22.00;99.90
40848;DHT22;26570;50.962;5.340;2023-10-08T17:08:27;21.80;99.90
40848;DHT22;26570;50.962;5.340;2023-10-08T17:11:20;21.60;99.90
40848;DHT22;26570;50.962;5.340;2023-10-08T17:14:45;21.40;99.90
40848;DHT22;26570;50.962;5.340;2023-10-08T17:18:07;21.20;99.90
40848;DHT22;26570;50.962;5.340;2023-10-08T17:21:10;21.00;99.90
40848;DHT22;26570;50.962;5.340;2023-10-08T17:24:19;20.80;99.90
40848;DHT22;26570;50.962;5.340;2023-10-08T17:27:19;20.70;99.90
40848;DHT22;26570;50.962;5.340;2023-10-08T17:30:30;20.50;99.90
40848;DHT22;26570;50.962;5.340;2023-10-08T17:33:22;20.40;99.90
40848;DHT22;26570;50.962;5.340;2023-10-08T17:36:15;20.30;99.90
40848;DHT22;26570;50.962;5.340;2023-10-08T17:39:08;20.20;99.90
40848;DHT22;26570;50.962;5.340;2023-10-08T17:42:07;20.10;99.90
40848;DHT22;26570;50.962;5.340;2023-10-08T17:45:23;20.00;99.90
40848;DHT22;26570;50.962;5.340;2023-10-08T17:48:21;20.10;99.90
40848;DHT22;26570;50.962;5.340;2023-10-08T17:51:10;19.70;99.90
40848;DHT22;26570;50.962;5.340;2023-10-08T17:54:31;19.60;99.90
40848;DHT22;26570;50.962;5.340;2023-10-08T17:57:29;19.30;99.90
40848;DHT22;26570;50.962;5.340;2023-10-08T18:00:29;19.30;99.90
40848;DHT22;26570;50.962;5.340;2023-10-08T18:03:59;19.30;99.90
40848;DHT22;26570;50.962;5.340;2023-10-08T18:07:22;19.30;99.90
40848;DHT22;26570;50.962;5.340;2023-10-08T18:10:15;19.10;99.90
40848;DHT22;26570;50.962;5.340;2023-10-08T18:13:22;18.90;99.90
40848;DHT22;26570;50.962;5.340;2023-10-08T18:16:18;18.80;99.90
40848;DHT22;26570;50.962;5.340;2023-10-08T18:19:50;18.60;99.90
40848;DHT22;26570;50.962;5.340;2023-10-08T18:23:08;18.40;99.90
40848;DHT22;26570;50.962;5.340;2023-10-08T18:29:42;18.40;99.90
40848;DHT22;26570;50.962;5.340;2023-10-08T18:32:40;18.30;99.90
40848;DHT22;26570;50.962;5.340;2023-10-08T18:36:23;18.30;99.90
40848;DHT22;26570;50.962;5.340;2023-10-08T18:39:42;18.10;99.90
40848;DHT22;26570;50.962;5.340;2023-10-08T18:42:38;18.20;99.90
40848;DHT22;26570;50.962;5.340;2023-10-08T18:46:08;17.90;99.90
40848;DHT22;26570;50.962;5.340;2023-10-08T18:49:20;17.90;99.90
40848;DHT22;26570;50.962;5.340;2023-10-08T18:52:43;18.00;99.90
40848;DHT22;26570;50.962;5.340;2023-10-08T18:55:43;17.80;99.90
40848;DHT22;26570;50.962;5.340;2023-10-08T18:58:57;17.80;99.90
40848;DHT22;26570;50.962;5.340;2023-10-08T19:01:52;17.70;99.90
40848;DHT22;26570;50.962;5.340;2023-10-08T19:05:11;17.70;99.90
40848;DHT22;26570;50.962;5.340;2023-10-08T19:08:17;17.60;99.90
40848;DHT22;26570;50.962;5.340;2023-10-08T19:11:45;17.60;99.90
40848;DHT22;26570;50.962;5.340;2023-10-08T19:14:34;17.50;99.90
40848;DHT22;26570;50.962;5.340;2023-10-08T19:17:19;17.40;99.90
40848;DHT22;26570;50.962;5.340;2023-10-08T19:20:06;17.40;99.90
40848;DHT22;26570;50.962;5.340;2023-10-08T19:22:53;17.30;99.90
40848;DHT22;26570;50.962;5.340;2023-10-08T19:25:38;17.40;99.90
40848;DHT22;26570;50.962;5.340;2023-10-08T19:28:25;17.30;99.90
40848;DHT22;26570;50.962;5.340;2023-10-08T19:31:12;17.30;99.90
40848;DHT22;26570;50.962;5.340;2023-10-08T19:33:59;17.30;99.90
40848;DHT22;26570;50.962;5.340;2023-10-08T19:36:45;17.30;99.90
40848;DHT22;26570;50.962;5.340;2023-10-08T19:39:36;17.00;99.90
40848;DHT22;26570;50.962;5.340;2023-10-08T19:42:22;16.90;99.90
40848;DHT22;26570;50.962;5.340;2023-10-08T19:45:11;16.90;99.90
40848;DHT22;26570;50.962;5.340;2023-10-08T19:48:06;17.00;99.90
40848;DHT22;26570;50.962;5.340;2023-10-08T19:51:14;17.00;99.90
40848;DHT22;26570;50.962;5.340;2023-10-08T19:54:00;16.90;99.90
40848;DHT22;26570;50.962;5.340;2023-10-08T19:56:46;16.90;99.90
40848;DHT22;26570;50.962;5.340;2023-10-08T19:59:33;16.70;99.90
40848;DHT22;26570;50.962;5.340;2023-10-08T20:02:19;16.60;99.90
40848;DHT22;26570;50.962;5.340;2023-10-08T20:05:07;16.50;99.90
40848;DHT22;26570;50.962;5.340;2023-10-08T20:07:57;16.40;99.90
40848;DHT22;26570;50.962;5.340;2023-10-08T20:10:44;16.40;99.90
40848;DHT22;26570;50.962;5.340;2023-10-08T20:13:29;16.30;99.90
40848;DHT22;26570;50.962;5.340;2023-10-08T20:16:16;16.30;99.90
40848;DHT22;26570;50.962;5.340;2023-10-08T20:19:05;16.40;99.90
40848;DHT22;26570;50.962;5.340;2023-10-08T20:21:51;16.40;99.90
40848;DHT22;26570;50.962;5.340;2023-10-08T20:24:39;16.40;99.90
40848;DHT22;26570;50.962;5.340;2023-10-08T20:27:25;16.40;99.90
40848;DHT22;26570;50.962;5.340;2023-10-08T20:30:15;16.30;99.90
40848;DHT22;26570;50.962;5.340;2023-10-08T20:33:08;16.10;99.90
40848;DHT22;26570;50.962;5.340;2023-10-08T20:35:56;16.00;99.90
40848;DHT22;26570;50.962;5.340;2023-10-08T20:38:43;16.00;99.90
40848;DHT22;26570;50.962;5.340;2023-10-08T20:41:51;15.90;99.90
40848;DHT22;26570;50.962;5.340;2023-10-08T20:44:40;15.90;99.90
40848;DHT22;26570;50.962;5.340;2023-10-08T20:47:27;15.80;99.90
40848;DHT22;26570;50.962;5.340;2023-10-08T20:50:14;15.90;99.90
40848;DHT22;26570;50.962;5.340;2023-10-08T20:53:04;15.90;99.90
40848;DHT22;26570;50.962;5.340;2023-10-08T20:55:49;16.00;99.90
40848;DHT22;26570;50.962;5.340;2023-10-08T20:58:37;16.30;99.90
40848;DHT22;26570;50.962;5.340;2023-10-08T21:01:23;16.10;99.90
40848;DHT22;26570;50.962;5.340;2023-10-08T21:04:08;16.00;99.90
40848;DHT22;26570;50.962;5.340;2023-10-08T21:06:54;15.80;99.90
40848;DHT22;26570;50.962;5.340;2023-10-08T21:09:39;15.80;99.90
40848;DHT22;26570;50.962;5.340;2023-10-08T21:12:25;15.70;99.90
40848;DHT22;26570;50.962;5.340;2023-10-08T21:15:13;15.70;99.90
40848;DHT22;26570;50.962;5.340;2023-10-08T21:18:05;15.60;99.90
40848;DHT22;26570;50.962;5.340;2023-10-08T21:20:50;15.60;99.90
40848;DHT22;26570;50.962;5.340;2023-10-08T21:23:39;15.50;99.90
40848;DHT22;26570;50.962;5.340;2023-10-08T21:26:25;15.40;99.90
40848;DHT22;26570;50.962;5.340;2023-10-08T21:29:10;15.50;99.90
40848;DHT22;26570;50.962;5.340;2023-10-08T21:31:56;15.40;99.90
40848;DHT22;26570;50.962;5.340;2023-10-08T21:34:41;15.40;99.90
40848;DHT22;26570;50.962;5.340;2023-10-08T21:37:30;15.40;99.90
40848;DHT22;26570;50.962;5.340;2023-10-08T21:40:16;15.40;99.90
40848;DHT22;26570;50.962;5.340;2023-10-08T21:43:03;15.40;99.90
40848;DHT22;26570;50.962;5.340;2023-10-08T21:45:51;15.30;99.90